Time;durP1;ratioP1;P1;durP2;ratioP2;P2;SDS_P1;SDS_P2;PMS_P1;PMS_P2;Temp;Humidity;BMP_temperature;BMP_pressure;BME280_temperature;BME280_humidity;BME280_pressure;Samples;Min_cycle;Max_cycle;Signal;HPM_P1;HPM_P2
2022/02/25 00:00:30;;;;;;;;;1.00;1.00;;;;;6.01;63.21;102130.66;5093424;27;45311;-71
2022/02/25 00:02:56;;;;;;;;;2.00;2.00;;;;;6.01;63.26;102130.66;5093731;27;45435;-70
2022/02/25 00:05:21;;;;;;;;;0.00;0.00;;;;;6.01;63.24;102138.50;5094014;27;45755;-70
2022/02/25 00:07:47;;;;;;;;;1.25;1.00;;;;;6.01;63.19;102137.63;5094460;27;45377;-70
2022/02/25 00:10:13;;;;;;;;;1.00;1.00;;;;;6.00;63.11;102144.59;5095755;27;47360;-70
2022/02/25 00:12:39;;;;;;;;;1.00;1.00;;;;;5.99;63.52;102139.34;5095006;27;45733;-70
2022/02/25 00:15:06;;;;;;;;;3.25;3.00;;;;;6.00;63.47;102151.53;5093721;27;45480;-70
2022/02/25 00:17:31;;;;;;;;;0.75;0.00;;;;;5.99;63.44;102149.78;5094296;27;45553;-70
2022/02/25 00:19:57;;;;;;;;;2.50;0.75;;;;;5.98;63.37;102148.94;5093979;27;51383;-70
2022/02/25 00:22:22;;;;;;;;;0.25;0.00;;;;;5.97;63.59;102155.03;5096055;27;45425;-70
2022/02/25 00:24:47;;;;;;;;;3.50;0.75;;;;;5.97;63.60;102160.25;5091190;27;45485;-70
2022/02/25 00:27:13;;;;;;;;;1.00;0.25;;;;;5.98;63.70;102153.28;5092691;27;45412;-70
2022/02/25 00:29:38;;;;;;;;;2.00;0.75;;;;;5.96;63.61;102160.25;5092119;27;46298;-70
2022/02/25 00:32:03;;;;;;;;;1.00;1.00;;;;;5.97;63.78;102159.38;5091384;27;45434;-70
2022/02/25 00:34:30;;;;;;;;;1.00;0.00;;;;;5.97;63.98;102160.25;5094588;27;45477;-70
2022/02/25 00:36:55;;;;;;;;;4.50;1.00;;;;;5.95;63.96;102166.31;5093885;27;45830;-70
2022/02/25 00:39:21;;;;;;;;;5.50;1.00;;;;;5.94;63.93;102167.19;5093360;27;45621;-70
2022/02/25 00:41:46;;;;;;;;;1.25;1.25;;;;;5.92;64.05;102172.41;5092893;27;45801;-70
2022/02/25 00:44:11;;;;;;;;;1.75;1.00;;;;;5.92;64.20;102167.19;5082517;27;45291;-70
2022/02/25 00:46:37;;;;;;;;;2.25;1.00;;;;;5.91;64.20;102170.69;5095236;27;45656;-70
2022/02/25 00:49:02;;;;;;;;;0.75;0.75;;;;;5.89;64.21;102177.59;5093140;27;49988;-70
2022/02/25 00:51:27;;;;;;;;;1.00;0.00;;;;;5.89;64.37;102181.94;5089319;27;45174;-70
2022/02/25 00:53:53;;;;;;;;;1.50;0.25;;;;;5.87;64.36;102181.09;5093872;27;45337;-70
2022/02/25 00:56:18;;;;;;;;;0.00;0.00;;;;;5.86;64.32;102182.84;5090443;27;45395;-70
2022/02/25 00:58:44;;;;;;;;;1.00;1.00;;;;;5.86;64.42;102182.84;5093507;27;46102;-71
2022/02/25 01:01:09;;;;;;;;;1.50;1.00;;;;;5.85;64.52;102188.94;5094239;27;45627;-70
2022/02/25 01:03:35;;;;;;;;;6.00;1.00;;;;;5.85;64.71;102188.06;5092616;27;45790;-70
2022/02/25 01:06:00;;;;;;;;;3.50;0.25;;;;;5.84;64.37;102195.00;5091993;27;45425;-70
2022/02/25 01:08:26;;;;;;;;;3.25;1.50;;;;;5.82;64.44;102193.25;5091087;27;46157;-70
2022/02/25 01:10:51;;;;;;;;;2.50;1.00;;;;;5.81;64.64;102195.00;5093960;27;45296;-70
2022/02/25 01:13:16;;;;;;;;;0.00;0.00;;;;;5.78;64.22;102189.78;5093463;27;45367;-70
2022/02/25 01:15:42;;;;;;;;;1.75;1.75;;;;;5.76;64.51;102196.75;5093362;27;45353;-70
2022/02/25 01:18:07;;;;;;;;;1.00;0.00;;;;;5.74;64.35;102195.84;5093151;27;45351;-70
2022/02/25 01:20:33;;;;;;;;;2.75;0.50;;;;;5.74;64.62;102206.28;5092287;27;45442;-70
2022/02/25 01:22:58;;;;;;;;;1.25;0.00;;;;;5.72;65.18;102205.44;5093365;27;45450;-70
2022/02/25 01:25:25;;;;;;;;;2.00;1.00;;;;;5.71;65.09;102212.38;5095566;27;45336;-70
2022/02/25 01:27:51;;;;;;;;;5.00;1.00;;;;;5.69;65.23;102201.09;5089814;27;45441;-70
2022/02/25 01:30:16;;;;;;;;;1.75;1.00;;;;;5.67;64.95;102207.16;5092939;27;45660;-70
2022/02/25 01:32:42;;;;;;;;;1.50;1.00;;;;;5.67;65.03;102199.34;5092278;27;45501;-70
2022/02/25 01:35:08;;;;;;;;;1.25;1.00;;;;;5.64;64.92;102210.66;5093001;27;45626;-70
2022/02/25 01:37:33;;;;;;;;;0.00;0.00;;;;;5.62;64.86;102209.75;5090275;27;45911;-70
2022/02/25 01:39:59;;;;;;;;;1.00;1.00;;;;;5.62;65.62;102208.91;5090546;27;45513;-70
2022/02/25 01:42:24;;;;;;;;;1.00;1.00;;;;;5.59;65.47;102204.56;5092320;27;45511;-70
2022/02/25 01:44:50;;;;;;;;;2.50;1.25;;;;;5.59;65.31;102208.91;5089962;27;45382;-70
2022/02/25 01:47:16;;;;;;;;;4.25;1.00;;;;;5.56;65.63;102220.19;5089441;27;45529;-70
2022/02/25 01:49:45;;;;;;;;;1.00;1.00;;;;;5.54;65.69;102215.84;5093633;27;45478;-70
2022/02/25 01:52:17;;;;;;;;;0.25;0.25;;;;;5.54;66.11;102215.84;5087551;27;45426;-70
2022/02/25 01:54:45;;;;;;;;;0.00;0.00;;;;;5.53;65.88;102221.91;5092927;27;45369;-70
2022/02/25 01:57:13;;;;;;;;;4.50;4.00;;;;;5.51;65.61;102216.72;5089859;27;46297;-70
2022/02/25 01:59:39;;;;;;;;;4.00;1.00;;;;;5.50;65.64;102218.44;5093022;27;45469;-70
2022/02/25 02:02:06;;;;;;;;;1.75;0.00;;;;;5.50;66.15;102212.38;5092666;27;45390;-70
2022/02/25 02:04:32;;;;;;;;;0.75;0.00;;;;;5.48;65.71;102214.09;5094752;27;45394;-70
2022/02/25 02:06:58;;;;;;;;;1.50;0.50;;;;;5.46;66.26;102216.69;5093683;27;46178;-70
2022/02/25 02:09:24;;;;;;;;;1.00;0.00;;;;;5.44;66.26;102212.34;5091903;27;45585;-70
2022/02/25 02:11:52;;;;;;;;;1.00;1.00;;;;;5.42;65.73;102225.38;5095772;27;47791;-70
2022/02/25 02:14:19;;;;;;;;;2.00;1.25;;;;;5.39;66.27;102214.97;5096221;27;45464;-70
2022/02/25 02:16:47;;;;;;;;;2.00;1.00;;;;;5.39;66.16;102211.47;5096196;27;45346;-70
2022/02/25 02:19:14;;;;;;;;;2.00;0.50;;;;;5.38;66.27;102210.63;5092711;27;45537;-70
2022/02/25 02:21:41;;;;;;;;;2.00;1.00;;;;;5.39;66.13;102211.47;5095727;27;45461;-70
2022/02/25 02:24:07;;;;;;;;;1.00;1.00;;;;;5.37;66.19;102214.06;5094378;27;45437;-70
2022/02/25 02:26:32;;;;;;;;;0.00;0.00;;;;;5.36;66.34;102214.94;5093810;27;46208;-70
2022/02/25 02:28:58;;;;;;;;;2.00;0.25;;;;;5.34;66.15;102211.47;5094778;27;45337;-70
2022/02/25 02:31:24;;;;;;;;;1.50;1.00;;;;;5.34;66.35;102208.00;5096971;27;45262;-71
2022/02/25 02:33:49;;;;;;;;;2.00;0.75;;;;;5.33;66.63;102203.66;5095948;27;45509;-70
2022/02/25 02:36:15;;;;;;;;;1.00;1.00;;;;;5.32;66.59;102209.72;5095696;27;46038;-70
2022/02/25 02:38:41;;;;;;;;;0.00;0.00;;;;;5.31;66.43;102208.84;5090771;27;45496;-70
2022/02/25 02:41:07;;;;;;;;;2.00;1.25;;;;;5.31;66.59;102213.19;5087896;27;45382;-71
2022/02/25 02:43:34;;;;;;;;;1.25;0.25;;;;;5.30;66.52;102217.53;5081560;27;45296;-70
2022/02/25 02:46:00;;;;;;;;;0.25;0.25;;;;;5.29;66.79;102214.94;5096716;27;46081;-70
2022/02/25 02:48:26;;;;;;;;;1.25;0.00;;;;;5.27;66.96;102212.28;5095556;27;45620;-70
2022/02/25 02:50:52;;;;;;;;;1.75;1.00;;;;;5.25;67.04;102211.44;5095029;27;45351;-70
2022/02/25 02:53:18;;;;;;;;;1.75;1.00;;;;;5.24;67.24;102212.31;5095097;27;45477;-70
2022/02/25 02:55:44;;;;;;;;;0.00;0.00;;;;;5.23;66.88;102214.03;5081988;27;46164;-70
2022/02/25 02:58:10;;;;;;;;;4.50;1.50;;;;;5.23;66.87;102215.78;5094281;27;45915;-70
2022/02/25 03:00:37;;;;;;;;;0.00;0.00;;;;;5.22;67.24;102216.66;5095456;27;45408;-70
2022/02/25 03:03:03;;;;;;;;;2.00;0.00;;;;;5.20;67.53;102206.22;5095369;27;45522;-71
2022/02/25 03:05:28;;;;;;;;;2.00;0.00;;;;;5.18;67.58;102205.34;5091596;27;45522;-71
2022/02/25 03:07:54;;;;;;;;;1.25;1.25;;;;;5.17;67.33;102207.97;5093868;27;45354;-70
2022/02/25 03:10:19;;;;;;;;;4.00;1.00;;;;;5.14;67.52;102214.00;5097065;27;45488;-70
2022/02/25 03:12:45;;;;;;;;;0.75;0.00;;;;;5.12;67.25;102213.16;5095122;27;45277;-70
2022/02/25 03:15:12;;;;;;;;;0.00;0.00;;;;;5.10;67.37;102208.78;5094809;27;46583;-70
2022/02/25 03:17:37;;;;;;;;;1.25;1.25;;;;;5.08;67.96;102202.72;5094530;27;45832;-70
2022/02/25 03:20:07;;;;;;;;;2.00;0.00;;;;;5.05;67.73;102216.59;5094252;27;45482;-70
2022/02/25 03:22:33;;;;;;;;;5.50;1.25;;;;;5.02;67.95;102219.19;5092391;27;45558;-70
2022/02/25 03:24:59;;;;;;;;;0.75;0.50;;;;;5.03;68.22;102217.47;5094798;27;46227;-70
2022/02/25 03:27:24;;;;;;;;;1.00;0.00;;;;;5.03;68.17;102222.66;5094635;27;45548;-71
2022/02/25 03:29:50;;;;;;;;;0.75;0.00;;;;;5.01;68.50;102226.97;5089280;27;45324;-70
2022/02/25 03:32:16;;;;;;;;;1.00;0.00;;;;;4.97;68.21;102231.34;5094171;27;45579;-70
2022/02/25 03:34:42;;;;;;;;;3.00;0.75;;;;;4.96;68.79;102234.81;5094818;27;45629;-70
2022/02/25 03:37:08;;;;;;;;;2.00;0.00;;;;;4.94;68.59;102229.56;5094492;27;45300;-70
2022/02/25 03:39:33;;;;;;;;;3.50;2.00;;;;;4.94;68.33;102232.16;5093962;27;53031;-70
2022/02/25 03:41:59;;;;;;;;;0.00;0.00;;;;;4.94;68.85;102236.50;5093275;27;45378;-70
2022/02/25 03:44:24;;;;;;;;;0.75;0.50;;;;;4.92;68.60;102238.25;5092240;27;45428;-70
2022/02/25 03:46:49;;;;;;;;;0.00;0.00;;;;;4.91;68.54;102240.00;5095146;27;45410;-70
2022/02/25 03:49:16;;;;;;;;;0.75;0.50;;;;;4.89;68.73;102240.84;5095272;27;45341;-71
2022/02/25 03:51:41;;;;;;;;;1.00;1.00;;;;;4.88;68.83;102237.34;5094102;27;45538;-70
2022/02/25 03:54:07;;;;;;;;;1.00;1.00;;;;;4.87;69.19;102234.75;5094198;27;45384;-70
2022/02/25 03:56:32;;;;;;;;;1.75;0.75;;;;;4.87;69.48;102239.97;5093568;27;45378;-70
2022/02/25 03:58:57;;;;;;;;;1.50;0.00;;;;;4.86;69.53;102249.53;5094451;27;45748;-70
2022/02/25 04:01:24;;;;;;;;;3.00;0.00;;;;;4.85;69.25;102258.16;5096514;27;45768;-70
2022/02/25 04:03:50;;;;;;;;;2.00;1.00;;;;;4.84;69.44;102260.78;5093907;27;46952;-70
2022/02/25 04:06:15;;;;;;;;;5.00;2.00;;;;;4.83;69.61;102257.31;5090151;27;45800;-70
2022/02/25 04:08:41;;;;;;;;;1.00;1.00;;;;;4.80;69.40;102265.09;5093340;27;45376;-70
2022/02/25 04:11:06;;;;;;;;;3.25;1.00;;;;;4.82;69.56;102259.91;5094481;27;45323;-70
2022/02/25 04:13:31;;;;;;;;;1.50;1.50;;;;;4.81;69.73;102271.19;5096652;27;46038;-70
2022/02/25 04:15:57;;;;;;;;;0.00;0.00;;;;;4.80;69.43;102264.22;5093950;27;45285;-71
2022/02/25 04:18:22;;;;;;;;;2.00;0.00;;;;;4.76;69.85;102268.56;5093872;27;45881;-70
2022/02/25 04:20:47;;;;;;;;;2.00;0.00;;;;;4.77;69.71;102277.25;5092108;27;45422;-70
2022/02/25 04:23:13;;;;;;;;;0.25;0.00;;;;;4.75;69.76;102272.03;5091755;27;45482;-70
2022/02/25 04:25:38;;;;;;;;;0.00;0.00;;;;;4.73;70.37;102271.13;5094883;27;53015;-70
2022/02/25 04:28:04;;;;;;;;;1.00;0.00;;;;;4.71;70.13;102267.66;5093080;27;45565;-70
2022/02/25 04:30:30;;;;;;;;;5.50;0.00;;;;;4.70;70.58;102271.13;5093812;27;45448;-70
2022/02/25 04:32:56;;;;;;;;;1.00;1.00;;;;;4.70;70.25;102281.56;5093923;27;45474;-70
2022/02/25 04:35:21;;;;;;;;;0.00;0.00;;;;;4.71;70.16;102291.09;5093714;27;45486;-70
2022/02/25 04:37:47;;;;;;;;;2.50;0.00;;;;;4.68;70.45;102283.25;5093837;27;45353;-70
2022/02/25 04:40:12;;;;;;;;;0.00;0.00;;;;;4.70;70.26;102291.97;5093578;27;45450;-70
2022/02/25 04:42:38;;;;;;;;;2.00;0.00;;;;;4.69;70.34;102291.06;5093836;27;46142;-70
2022/02/25 04:45:06;;;;;;;;;0.75;0.75;;;;;4.70;70.91;102299.78;5093009;27;45419;-70
2022/02/25 04:47:31;;;;;;;;;3.00;0.00;;;;;4.70;70.53;102302.38;5093779;27;45566;-70
2022/02/25 04:49:57;;;;;;;;;5.50;2.00;;;;;4.67;70.87;102308.44;5093686;27;45544;-70
2022/02/25 04:52:22;;;;;;;;;1.00;0.00;;;;;4.69;71.02;102317.13;5094421;27;46077;-70
2022/02/25 04:54:48;;;;;;;;;1.00;0.00;;;;;4.70;70.83;102312.81;5093739;27;45269;-70
2022/02/25 04:57:13;;;;;;;;;2.00;1.00;;;;;4.67;70.58;102305.81;5093072;27;45349;-71
2022/02/25 04:59:39;;;;;;;;;6.00;0.25;;;;;4.67;71.12;102312.78;5092243;27;45245;-71
2022/02/25 05:02:04;;;;;;;;;1.25;0.00;;;;;4.64;71.07;102303.19;5091890;27;45390;-71
2022/02/25 05:04:29;;;;;;;;;4.50;0.00;;;;;4.63;71.27;102303.19;5095193;27;45785;-71
2022/02/25 05:06:55;;;;;;;;;1.75;0.00;;;;;4.62;71.11;102312.75;5091404;27;45241;-71
2022/02/25 05:09:20;;;;;;;;;5.00;1.00;;;;;4.60;71.36;102300.59;5093014;27;45371;-70
2022/02/25 05:11:46;;;;;;;;;3.50;1.00;;;;;4.60;71.29;102300.59;5093006;27;46122;-71
2022/02/25 05:20:15;;;;;;;;;0.50;0.00;;;;;4.59;71.29;102315.31;5093287;27;45490;-70
2022/02/25 05:22:25;;;;;;;;;0.75;0.00;;;;;4.56;71.94;102314.44;5094212;27;45496;-70
2022/02/25 05:24:50;;;;;;;;;3.75;1.00;;;;;4.56;71.48;102324.84;5093092;27;45292;-70
2022/02/25 05:27:16;;;;;;;;;2.50;1.00;;;;;4.53;72.06;102320.47;5093400;27;45500;-71
2022/02/25 05:29:42;;;;;;;;;3.00;1.00;;;;;4.53;71.61;102330.03;5092561;27;45473;-71
2022/02/25 05:32:07;;;;;;;;;1.00;1.00;;;;;4.52;71.85;102331.75;5093143;27;45413;-70
2022/02/25 05:34:33;;;;;;;;;3.50;1.00;;;;;4.52;72.30;102333.50;5094238;27;45380;-70
2022/02/25 05:36:58;;;;;;;;;0.75;0.75;;;;;4.52;72.40;102336.09;5093619;27;45687;-70
2022/02/25 05:39:23;;;;;;;;;0.25;0.25;;;;;4.51;72.24;102340.44;5091917;27;45551;-70
2022/02/25 05:41:49;;;;;;;;;0.00;0.00;;;;;4.50;72.23;102340.44;5092622;27;49064;-71
2022/02/25 05:44:14;;;;;;;;;0.00;0.00;;;;;4.50;72.33;102338.69;5095107;27;45421;-70
2022/02/25 05:46:39;;;;;;;;;2.00;0.00;;;;;4.50;72.51;102341.28;5097369;27;48636;-70
2022/02/25 05:49:05;;;;;;;;;0.00;0.00;;;;;4.48;72.44;102336.94;5097033;27;45391;-70
2022/02/25 05:51:30;;;;;;;;;3.00;1.00;;;;;4.47;72.43;102337.78;5095890;27;45326;-70
2022/02/25 05:53:55;;;;;;;;;2.00;2.00;;;;;4.44;72.68;102342.13;5096698;27;45424;-70
2022/02/25 05:56:21;;;;;;;;;4.50;1.00;;;;;4.44;72.72;102347.34;5096572;27;45340;-70
2022/02/25 05:58:47;;;;;;;;;1.50;1.00;;;;;4.43;72.98;102348.16;5096192;27;47523;-70
2022/02/25 06:01:12;;;;;;;;;1.00;1.00;;;;;4.45;72.88;102361.22;5096408;27;46135;-70
2022/02/25 06:03:37;;;;;;;;;1.00;1.00;;;;;4.43;72.82;102355.09;5094848;27;47888;-70
2022/02/25 06:06:03;;;;;;;;;1.00;1.00;;;;;4.45;72.96;102363.81;5095366;27;47600;-70
2022/02/25 06:08:28;;;;;;;;;3.25;2.00;;;;;4.46;73.07;102368.16;5096205;27;45533;-70
2022/02/25 06:10:54;;;;;;;;;5.25;2.00;;;;;4.45;73.12;102369.91;5096040;27;45502;-70
2022/02/25 06:13:19;;;;;;;;;2.00;0.00;;;;;4.48;73.21;102370.75;5097887;27;46646;-70
2022/02/25 06:15:45;;;;;;;;;1.50;1.50;;;;;4.49;72.98;102378.63;5095967;27;45505;-71
2022/02/25 06:18:11;;;;;;;;;4.50;2.00;;;;;4.54;73.35;102368.22;5092979;27;45506;-70
2022/02/25 06:20:36;;;;;;;;;3.00;2.00;;;;;4.54;73.05;102368.22;5094584;27;46589;-70
2022/02/25 06:23:03;;;;;;;;;1.50;1.00;;;;;4.56;73.25;102377.78;5095003;27;45468;-70
2022/02/25 06:25:29;;;;;;;;;1.25;1.00;;;;;4.57;73.26;102378.66;5093266;27;45395;-70
2022/02/25 06:27:54;;;;;;;;;1.75;0.00;;;;;4.58;73.41;102378.66;5095370;27;45611;-70
2022/02/25 06:30:20;;;;;;;;;1.75;1.75;;;;;4.58;73.24;102380.41;5095318;27;46315;-70
2022/02/25 06:32:46;;;;;;;;;1.00;1.00;;;;;4.58;73.32;102388.22;5093673;27;47053;-70
2022/02/25 06:35:13;;;;;;;;;5.00;3.50;;;;;4.58;73.75;102388.22;5095733;27;45478;-70
2022/02/25 06:37:38;;;;;;;;;4.00;2.00;;;;;4.58;73.51;102390.81;5097405;27;45429;-70
2022/02/25 06:40:04;;;;;;;;;2.50;1.00;;;;;4.56;73.51;102398.63;5096114;27;46140;-70
2022/02/25 06:42:30;;;;;;;;;4.25;1.00;;;;;4.55;73.53;102396.88;5095544;27;45509;-70
2022/02/25 06:44:55;;;;;;;;;5.00;1.00;;;;;4.56;73.56;102398.63;5095638;27;45816;-70
2022/02/25 06:47:21;;;;;;;;;2.25;1.00;;;;;4.58;73.74;102407.31;5094755;27;45366;-70
2022/02/25 06:49:46;;;;;;;;;5.25;2.00;;;;;4.59;73.33;102416.84;5095551;27;45511;-70
2022/02/25 06:52:12;;;;;;;;;5.50;2.00;;;;;4.62;73.77;102421.22;5097209;27;45411;-70
2022/02/25 06:54:37;;;;;;;;;5.50;2.00;;;;;4.62;73.31;102422.09;5094237;27;45469;-70
2022/02/25 06:57:02;;;;;;;;;1.25;1.00;;;;;4.66;73.78;102421.28;5095515;27;45368;-70
2022/02/25 06:59:28;;;;;;;;;3.50;1.00;;;;;4.68;74.00;102423.88;5105700;27;47322;-70
2022/02/25 07:01:54;;;;;;;;;6.00;1.50;;;;;4.74;73.43;102423.94;5094392;27;45337;-70
2022/02/25 07:04:19;;;;;;;;;1.00;1.00;;;;;4.80;73.32;102418.75;5095924;27;45531;-70
2022/02/25 07:06:44;;;;;;;;;2.50;1.00;;;;;4.88;73.63;102422.31;5095342;27;45440;-70
2022/02/25 07:09:10;;;;;;;;;3.00;1.25;;;;;4.95;73.80;102410.19;5094860;27;46072;-70
2022/02/25 07:11:36;;;;;;;;;4.50;1.50;;;;;5.04;73.36;102419.81;5095184;27;45441;-70
2022/02/25 07:14:02;;;;;;;;;3.50;1.75;;;;;5.17;73.15;102417.31;5089489;27;46430;-70
2022/02/25 07:16:28;;;;;;;;;4.75;2.00;;;;;5.31;73.27;102435.63;5096460;27;45354;-70
2022/02/25 07:18:53;;;;;;;;;2.00;1.25;;;;;5.46;73.20;102433.09;5094677;27;45927;-70
2022/02/25 07:21:18;;;;;;;;;2.50;1.00;;;;;5.59;72.44;102427.97;5094909;27;45446;-70
2022/02/25 07:23:44;;;;;;;;;5.00;1.00;;;;;5.68;72.35;102417.56;5094588;27;45548;-70
2022/02/25 07:26:09;;;;;;;;;3.00;3.00;;;;;5.88;72.54;102423.72;5094634;27;45488;-70
2022/02/25 07:28:35;;;;;;;;;2.00;1.75;;;;;6.06;71.82;102417.75;5096030;27;45363;-70
2022/02/25 07:31:00;;;;;;;;;4.00;2.00;;;;;6.30;71.76;102429.09;5094391;27;45706;-70
2022/02/25 07:33:26;;;;;;;;;1.50;1.00;;;;;6.60;71.35;102417.81;5092876;27;45466;-71
2022/02/25 07:35:52;;;;;;;;;2.00;2.00;;;;;7.14;71.13;102421.25;5093891;27;45327;-70
2022/02/25 07:38:18;;;;;;;;;3.00;1.50;;;;;7.76;70.32;102422.81;5091868;27;45399;-70
2022/02/25 07:40:43;;;;;;;;;6.00;3.25;;;;;8.29;69.11;102424.28;5095342;27;47984;-70
2022/02/25 07:43:12;;;;;;;;;1.00;1.00;;;;;8.85;67.72;102421.25;5093143;27;45357;-70
2022/02/25 07:45:37;;;;;;;;;2.00;1.00;;;;;9.39;67.22;102413.72;5094374;27;45327;-70
2022/02/25 07:48:03;;;;;;;;;5.50;2.00;;;;;9.96;65.65;102420.03;5093791;27;47139;-71
2022/02/25 07:50:28;;;;;;;;;3.00;3.00;;;;;10.79;64.91;102412.66;5094188;27;45558;-71
2022/02/25 07:52:54;;;;;;;;;2.50;2.00;;;;;11.99;63.99;102411.22;5094557;27;45358;-71
2022/02/25 07:55:19;;;;;;;;;8.00;5.50;;;;;13.35;62.15;102407.84;5095522;27;45334;-70
2022/02/25 07:57:45;;;;;;;;;7.25;2.25;;;;;14.56;59.79;102409.47;5092044;27;46196;-71
2022/02/25 08:00:15;;;;;;;;;5.50;3.75;;;;;15.63;58.22;102419.00;5093067;27;45616;-69
2022/02/25 08:02:41;;;;;;;;;4.75;3.00;;;;;17.06;56.71;102420.31;5093513;27;45500;-72
2022/02/25 08:05:07;;;;;;;;;2.00;2.00;;;;;18.33;54.15;102418.97;5093823;27;45407;-71
2022/02/25 08:07:32;;;;;;;;;6.00;3.50;;;;;18.55;50.40;102429.41;5096105;27;45473;-72
2022/02/25 08:09:58;;;;;;;;;3.75;2.00;;;;;18.58;50.94;102437.25;5093332;27;45462;-69
2022/02/25 08:12:24;;;;;;;;;3.25;2.75;;;;;19.25;49.48;102436.50;5093886;27;45384;-72
2022/02/25 08:14:49;;;;;;;;;5.00;2.50;;;;;20.19;49.24;102434.97;5093761;27;45467;-71
2022/02/25 08:17:14;;;;;;;;;4.25;3.25;;;;;21.19;46.64;102432.69;5092539;27;45819;-70
2022/02/25 08:19:40;;;;;;;;;3.50;2.50;;;;;21.89;45.96;102434.56;5094772;27;45383;-69
2022/02/25 08:22:05;;;;;;;;;5.25;3.00;;;;;21.62;44.31;102438.97;5094889;27;45769;-69
2022/02/25 08:24:31;;;;;;;;;3.25;3.25;;;;;21.78;44.25;102442.41;5093608;27;45472;-69
2022/02/25 08:26:56;;;;;;;;;7.25;4.25;;;;;20.58;42.39;102443.41;5091548;27;45541;-71
2022/02/25 08:29:21;;;;;;;;;6.25;3.00;;;;;20.13;44.30;102456.69;5092913;27;46516;-70
2022/02/25 08:31:48;;;;;;;;;2.00;2.00;;;;;21.02;43.88;102450.63;5093748;27;45383;-70
2022/02/25 08:34:13;;;;;;;;;6.75;4.00;;;;;22.20;43.24;102447.81;5093168;27;45418;-70
2022/02/25 08:36:39;;;;;;;;;4.00;3.25;;;;;23.35;41.38;102454.38;5093550;27;45898;-70
2022/02/25 08:39:05;;;;;;;;;4.25;4.25;;;;;24.33;40.76;102458.09;5101332;27;45361;-70
2022/02/25 08:41:31;;;;;;;;;4.50;2.75;;;;;25.44;40.49;102451.44;5093664;27;45817;-70
2022/02/25 08:43:56;;;;;;;;;6.25;3.00;;;;;26.56;38.64;102462.09;5093094;27;45570;-71
2022/02/25 08:46:22;;;;;;;;;5.00;1.25;;;;;27.68;37.55;102455.19;5095818;27;46296;-71
2022/02/25 08:48:48;;;;;;;;;2.50;2.50;;;;;28.75;36.98;102459.00;5093397;27;45312;-71
2022/02/25 08:51:13;;;;;;;;;4.75;2.00;;;;;28.28;34.97;102462.34;5093399;27;45375;-70
2022/02/25 08:53:39;;;;;;;;;3.00;1.25;;;;;26.12;34.83;102469.31;5092258;27;45403;-70
2022/02/25 08:56:06;;;;;;;;;3.50;1.25;;;;;24.15;35.87;102481.78;5092158;27;45502;-70
2022/02/25 08:58:32;;;;;;;;;3.50;2.00;;;;;23.16;37.13;102481.59;5095204;27;45430;-70
2022/02/25 09:00:57;;;;;;;;;24.50;23.00;;;;;23.91;37.68;102479.91;5092193;27;45568;-70
2022/02/25 09:03:23;;;;;;;;;114.33;101.00;;;;;25.51;37.61;102487.66;5092727;27;45464;-70
2022/02/25 09:05:48;;;;;;;;;86.75;74.50;;;;;26.99;35.36;102480.03;5091475;27;46436;-70
2022/02/25 09:08:13;;;;;;;;;4.50;3.75;;;;;28.35;35.00;102492.44;5093635;27;45471;-70
2022/02/25 09:10:41;;;;;;;;;1.25;1.25;;;;;29.47;34.12;102488.25;5093871;27;45443;-71
2022/02/25 09:13:07;;;;;;;;;3.75;3.75;;;;;30.54;34.53;102488.63;5094414;27;45725;-71
2022/02/25 09:15:34;;;;;;;;;8.75;7.25;;;;;30.85;32.35;102499.06;5092895;27;47100;-71
2022/02/25 09:17:59;;;;;;;;;31.75;26.75;;;;;31.33;31.70;102492.38;5096391;27;45865;-71
2022/02/25 09:20:27;;;;;;;;;22.50;20.25;;;;;32.24;30.78;102500.78;5095587;27;45773;-71
2022/02/25 09:22:53;;;;;;;;;20.75;17.75;;;;;32.95;30.68;102503.00;5095131;27;45660;-71
2022/02/25 09:25:18;;;;;;;;;7.00;7.00;;;;;33.34;29.10;102512.31;5095694;27;46285;-70
2022/02/25 09:27:44;;;;;;;;;1.25;1.25;;;;;33.90;29.37;102514.06;5092573;27;45454;-70
2022/02/25 09:30:13;;;;;;;;;10.50;8.50;;;;;34.42;28.59;102531.72;5094518;27;45876;-70
2022/02/25 09:32:39;;;;;;;;;29.75;25.75;;;;;34.44;26.93;102521.47;5090239;27;45509;-70
2022/02/25 09:35:06;;;;;;;;;5.25;4.00;;;;;33.83;27.47;102525.81;5084559;27;46408;-70
2022/02/25 09:37:34;;;;;;;;;17.50;16.50;;;;;34.51;27.27;102526.06;5084251;27;45766;-70
2022/02/25 09:40:03;;;;;;;;;16.00;13.00;;;;;35.22;26.21;102525.84;5093289;27;45980;-70
2022/02/25 09:42:28;;;;;;;;;54.25;42.00;;;;;36.03;26.36;102525.00;5089211;27;45562;-71
2022/02/25 09:44:54;;;;;;;;;19.50;15.75;;;;;36.58;25.14;102533.63;5089852;27;46963;-70
2022/02/25 09:47:19;;;;;;;;;7.00;7.00;;;;;37.14;24.91;102532.91;5090653;27;45438;-70
2022/02/25 09:49:45;;;;;;;;;9.00;6.50;;;;;37.70;24.39;102538.41;5092909;27;45518;-70
2022/02/25 09:52:15;;;;;;;;;7.25;6.00;;;;;38.19;23.86;102543.69;5082798;27;45361;-71
2022/02/25 09:54:41;;;;;;;;;14.75;12.50;;;;;38.39;23.19;102543.81;5089520;27;46186;-71
2022/02/25 09:57:07;;;;;;;;;12.25;9.50;;;;;38.33;23.02;102544.63;5091068;27;45801;-70
2022/02/25 09:59:34;;;;;;;;;13.75;11.00;;;;;38.44;22.84;102555.00;5094643;27;45370;-71
2022/02/25 10:02:04;;;;;;;;;3.00;2.50;;;;;38.23;22.16;102561.47;5095647;27;45426;-71
2022/02/25 10:04:31;;;;;;;;;18.00;18.00;;;;;37.98;22.50;102558.41;5079492;27;46433;-70
2022/02/25 10:06:56;;;;;;;;;5.00;5.00;;;;;37.19;22.17;102552.34;5083171;27;45700;-70
2022/02/25 10:09:34;;;;;;;;;6.00;2.25;;;;;36.13;23.24;102565.75;5089166;27;45443;-71
2022/02/25 10:12:10;;;;;;;;;9.25;7.25;;;;;35.64;23.24;102562.69;5094697;27;47686;-71
2022/02/25 10:14:38;;;;;;;;;8.00;8.00;;;;;35.25;23.50;102566.50;5094047;27;45782;-71
2022/02/25 10:17:15;;;;;;;;;6.25;4.75;;;;;34.67;23.64;102562.50;5092886;27;47884;-71
2022/02/25 10:19:42;;;;;;;;;11.75;8.75;;;;;33.97;24.30;102566.06;5094106;27;45439;-71
2022/02/25 10:22:33;;;;;;;;;11.25;11.00;;;;;33.26;24.14;102567.69;5097048;27;45351;-71
2022/02/25 10:25:01;;;;;;;;;17.25;13.00;;;;;32.84;24.01;102579.56;5090773;27;45592;-71
2022/02/25 10:27:30;;;;;;;;;9.75;6.00;;;;;32.43;24.15;102584.91;5095309;27;45623;-71
2022/02/25 10:30:00;;;;;;;;;5.00;2.50;;;;;31.39;25.24;102582.25;5095744;27;45403;-71
2022/02/25 10:32:27;;;;;;;;;6.00;3.75;;;;;30.23;25.93;102593.03;5095834;27;45433;-71
2022/02/25 10:34:52;;;;;;;;;5.50;3.75;;;;;29.18;25.97;102590.34;5095862;27;45910;-71
2022/02/25 10:37:17;;;;;;;;;3.00;3.00;;;;;28.51;27.09;102583.84;5097847;27;45272;-71
2022/02/25 10:39:43;;;;;;;;;4.25;1.00;;;;;27.81;26.86;102588.22;5095193;27;45443;-71
2022/02/25 10:42:19;;;;;;;;;2.75;2.25;;;;;27.41;27.96;102585.41;5095990;27;45541;-70
2022/02/25 10:44:46;;;;;;;;;1.75;1.00;;;;;27.28;27.85;102581.03;5094455;27;45508;-70
2022/02/25 10:47:15;;;;;;;;;1.25;1.25;;;;;26.94;28.20;102582.13;5095236;27;45631;-70
2022/02/25 10:49:41;;;;;;;;;15.00;14.25;;;;;26.09;28.77;102580.00;5097015;27;45361;-70
2022/02/25 10:52:26;;;;;;;;;2.00;2.00;;;;;24.96;28.98;102580.66;5095281;27;45387;-70
2022/02/25 10:54:54;;;;;;;;;2.50;2.00;;;;;23.74;29.64;102587.63;5093619;27;47248;-71
2022/02/25 10:57:19;;;;;;;;;1.25;1.25;;;;;23.05;30.75;102592.28;5093780;27;45781;-72
2022/02/25 10:59:47;;;;;;;;;6.25;4.00;;;;;22.94;31.48;102588.59;5094990;27;45414;-70
2022/02/25 11:02:47;;;;;;;;;41.50;34.25;;;;;23.04;31.31;102587.03;5095716;27;45565;-69
2022/02/25 11:05:24;;;;;;;;;73.50;55.75;;;;;23.01;31.13;102585.41;5075130;27;47221;-70
2022/02/25 11:07:54;;;;;;;;;22.00;20.00;;;;;22.42;31.74;102587.44;5094726;27;45333;-70
2022/02/25 11:10:25;;;;;;;;;24.75;21.25;;;;;22.31;32.26;102597.97;5097377;27;45502;-69
2022/02/25 11:12:51;;;;;;;;;3.25;3.00;;;;;22.65;32.25;102589.50;5094635;27;45863;-69
2022/02/25 11:15:23;;;;;;;;;12.00;9.25;;;;;23.13;32.25;102599.84;5094737;27;46134;-70
2022/02/25 11:17:49;;;;;;;;;12.50;10.75;;;;;23.43;31.90;102586.16;5094810;27;45737;-70
2022/02/25 11:20:24;;;;;;;;;17.00;11.50;;;;;23.56;31.74;102591.56;5095099;27;45451;-69
2022/02/25 11:23:05;;;;;;;;;26.25;18.50;;;;;23.63;31.89;102588.38;5094857;27;45436;-70
2022/02/25 11:25:31;;;;;;;;;20.00;18.00;;;;;23.23;31.47;102592.91;5096274;27;46837;-70
2022/02/25 11:27:57;;;;;;;;;14.25;11.00;;;;;22.55;32.26;102606.25;5094900;27;45733;-70
2022/02/25 11:30:30;;;;;;;;;16.00;14.75;;;;;21.83;32.42;102605.38;5093374;27;45543;-70